createdAt,value
2017-12-24T00:01:39.430Z,8.50
2017-12-24T00:04:07.896Z,8.50
2017-12-24T00:06:36.192Z,8.50
2017-12-24T00:09:04.504Z,8.40
2017-12-24T00:11:32.795Z,8.40
2017-12-24T00:14:01.099Z,8.40
2017-12-24T00:16:29.393Z,8.40
2017-12-24T00:18:57.707Z,8.50
2017-12-24T00:21:25.995Z,8.50
2017-12-24T00:23:54.296Z,8.50
2017-12-24T00:26:22.580Z,8.40
2017-12-24T00:28:50.891Z,8.40
2017-12-24T00:31:19.179Z,8.40
2017-12-24T00:33:47.498Z,8.40
2017-12-24T00:36:15.792Z,8.40
2017-12-24T00:38:44.104Z,8.40
2017-12-24T00:41:12.396Z,8.50
2017-12-24T00:43:40.705Z,8.40
2017-12-24T00:46:08.996Z,8.40
2017-12-24T00:48:37.303Z,8.40
2017-12-24T00:51:05.598Z,8.40
2017-12-24T00:53:33.915Z,8.40
2017-12-24T00:56:02.216Z,8.40
2017-12-24T00:58:30.532Z,8.40
2017-12-24T01:00:58.825Z,8.40
2017-12-24T01:03:27.132Z,8.40
2017-12-24T01:05:55.420Z,8.40
2017-12-24T01:08:23.729Z,8.40
2017-12-24T01:10:51.263Z,8.40
2017-12-24T01:13:19.580Z,8.40
2017-12-24T01:15:47.870Z,8.40
2017-12-24T01:18:16.179Z,8.40
2017-12-24T01:20:44.481Z,8.40
2017-12-24T01:23:12.800Z,8.40
2017-12-24T01:25:41.102Z,8.40
2017-12-24T01:28:09.396Z,8.40
2017-12-24T01:30:37.708Z,8.40
2017-12-24T01:33:06.005Z,8.40
2017-12-24T01:35:34.320Z,8.40
2017-12-24T01:38:02.611Z,8.40
2017-12-24T01:40:30.921Z,8.50
2017-12-24T01:42:59.209Z,8.40
2017-12-24T01:45:27.528Z,8.40
2017-12-24T01:47:55.826Z,8.50
2017-12-24T01:50:24.140Z,8.40
2017-12-24T01:52:52.427Z,8.40
2017-12-24T01:55:20.742Z,8.50
2017-12-24T01:57:49.035Z,8.40
2017-12-24T02:00:17.348Z,8.40
2017-12-24T02:02:44.876Z,8.40
2017-12-24T02:05:13.202Z,8.50
2017-12-24T02:07:41.493Z,8.50
2017-12-24T02:10:09.805Z,8.50
2017-12-24T02:12:38.088Z,8.50
2017-12-24T02:15:06.404Z,8.50
2017-12-24T02:17:34.698Z,8.50
2017-12-24T02:20:03.017Z,8.50
2017-12-24T02:22:31.312Z,8.50
2017-12-24T02:24:59.632Z,8.50
2017-12-24T02:27:27.937Z,8.50
2017-12-24T02:29:56.249Z,8.50
2017-12-24T02:32:24.542Z,8.50
2017-12-24T02:34:52.869Z,8.50
2017-12-24T02:37:21.162Z,8.50
2017-12-24T02:39:49.473Z,8.50
2017-12-24T02:42:17.769Z,8.50
2017-12-24T02:44:46.080Z,8.50
2017-12-24T02:47:14.385Z,8.50
2017-12-24T02:49:42.698Z,8.50
2017-12-24T02:52:10.998Z,8.50
2017-12-24T02:54:39.334Z,8.50
2017-12-24T02:57:07.634Z,8.50
2017-12-24T02:59:35.957Z,8.50
2017-12-24T03:02:04.253Z,8.50
2017-12-24T03:04:32.564Z,8.50
2017-12-24T03:07:00.852Z,8.50
2017-12-24T03:09:29.144Z,8.50
2017-12-24T03:11:57.456Z,8.50
2017-12-24T03:14:25.752Z,8.50
2017-12-24T03:16:54.079Z,8.50
2017-12-24T03:19:23.188Z,8.50
2017-12-24T03:21:51.515Z,8.50
2017-12-24T03:24:19.811Z,8.50
2017-12-24T03:26:48.129Z,8.50
2017-12-24T03:29:16.420Z,8.50
2017-12-24T03:31:44.736Z,8.50
2017-12-24T03:34:13.036Z,8.50
2017-12-24T03:36:41.365Z,8.50
2017-12-24T03:39:09.665Z,8.50
2017-12-24T03:41:37.982Z,8.50
2017-12-24T03:44:06.280Z,8.50
2017-12-24T03:46:34.603Z,8.50
2017-12-24T03:49:02.896Z,8.50
2017-12-24T03:51:31.212Z,8.50
2017-12-24T03:53:59.516Z,8.50
2017-12-24T03:56:27.833Z,8.40
2017-12-24T03:58:56.132Z,8.40
2017-12-24T04:01:23.688Z,8.40
2017-12-24T04:03:52.036Z,8.40
2017-12-24T04:06:20.357Z,8.50
2017-12-24T04:08:48.660Z,8.50
2017-12-24T04:11:16.979Z,8.50
2017-12-24T04:13:44.513Z,8.40
2017-12-24T04:16:12.828Z,8.50
2017-12-24T04:18:41.120Z,8.50
2017-12-24T04:21:09.436Z,8.50
2017-12-24T04:23:37.732Z,8.50
2017-12-24T04:26:06.040Z,8.50
2017-12-24T04:28:34.365Z,8.50
2017-12-24T04:31:02.681Z,8.50
2017-12-24T04:33:30.977Z,8.50
2017-12-24T04:35:59.292Z,8.50
2017-12-24T04:38:27.613Z,8.50
2017-12-24T04:40:55.926Z,8.50
2017-12-24T04:43:24.225Z,8.50
2017-12-24T04:45:52.520Z,8.50
2017-12-24T04:48:20.833Z,8.50
2017-12-24T04:50:49.133Z,8.50
2017-12-24T04:53:17.449Z,8.50
2017-12-24T04:55:45.750Z,8.50
2017-12-24T04:58:14.061Z,8.50
2017-12-24T05:00:42.354Z,8.50
2017-12-24T05:03:10.672Z,8.50
2017-12-24T05:05:38.964Z,8.50
2017-12-24T05:08:07.278Z,8.50
2017-12-24T05:10:35.575Z,8.50
2017-12-24T05:13:03.896Z,8.50
2017-12-24T05:15:32.193Z,8.50
2017-12-24T05:18:00.504Z,8.50
2017-12-24T05:20:28.800Z,8.50
2017-12-24T05:22:57.112Z,8.50
2017-12-24T05:25:25.404Z,8.50
2017-12-24T05:27:53.724Z,8.50
2017-12-24T05:30:22.017Z,8.50
2017-12-24T05:32:50.338Z,8.50
2017-12-24T05:35:18.641Z,8.50
2017-12-24T05:37:46.972Z,8.50
2017-12-24T05:40:15.271Z,8.50
2017-12-24T05:42:42.825Z,8.50
2017-12-24T05:45:11.120Z,8.50
2017-12-24T05:47:39.440Z,8.50
2017-12-24T05:50:07.736Z,8.50
2017-12-24T05:52:36.058Z,8.50
2017-12-24T05:55:04.360Z,8.50
2017-12-24T05:57:32.688Z,8.50
2017-12-24T06:00:00.987Z,8.50
2017-12-24T06:02:29.304Z,8.50
2017-12-24T06:04:57.599Z,8.50
2017-12-24T06:07:25.919Z,8.50
2017-12-24T06:09:54.216Z,8.50
2017-12-24T06:12:22.533Z,8.50
2017-12-24T06:14:50.828Z,8.50
2017-12-24T06:17:19.133Z,8.50
2017-12-24T06:19:47.436Z,8.50
2017-12-24T06:22:15.772Z,8.50
2017-12-24T06:24:44.076Z,8.50
2017-12-24T06:27:12.361Z,8.50
2017-12-24T06:29:40.668Z,8.50
2017-12-24T06:32:08.969Z,8.50
2017-12-24T06:34:37.289Z,8.50
2017-12-24T06:37:05.583Z,8.50
2017-12-24T06:39:33.896Z,8.50
2017-12-24T06:42:01.430Z,8.50
2017-12-24T06:44:29.747Z,8.50
2017-12-24T06:46:58.040Z,8.50
2017-12-24T06:49:26.364Z,8.50
2017-12-24T06:51:54.664Z,8.50
2017-12-24T06:54:22.979Z,8.50
2017-12-24T06:56:51.282Z,8.50
2017-12-24T06:59:19.605Z,8.50
2017-12-24T07:01:47.904Z,8.50
2017-12-24T07:04:16.221Z,8.50
2017-12-24T07:06:44.519Z,8.50
2017-12-24T07:09:12.833Z,8.50
2017-12-24T07:11:41.132Z,8.50
2017-12-24T07:14:09.680Z,8.50
2017-12-24T07:16:37.976Z,8.50
2017-12-24T07:19:05.525Z,8.50
2017-12-24T07:21:33.820Z,8.50
2017-12-24T07:24:02.137Z,8.50
2017-12-24T07:26:30.423Z,8.50
2017-12-24T07:28:58.742Z,8.50
2017-12-24T07:31:27.037Z,8.50
2017-12-24T07:33:55.360Z,8.50
2017-12-24T07:36:23.671Z,8.50
2017-12-24T07:38:51.988Z,8.50
2017-12-24T07:41:20.292Z,8.50
2017-12-24T07:43:48.601Z,8.50
2017-12-24T07:46:16.891Z,8.50
2017-12-24T07:48:45.216Z,8.50
2017-12-24T07:51:13.510Z,8.50
2017-12-24T07:53:41.833Z,8.60
2017-12-24T07:56:10.135Z,8.60
2017-12-24T07:58:38.455Z,8.50
2017-12-24T08:01:06.757Z,8.50
2017-12-24T08:03:35.085Z,8.50
2017-12-24T08:06:03.414Z,8.60
2017-12-24T08:08:30.932Z,8.60
2017-12-24T08:10:59.239Z,8.50
2017-12-24T08:13:27.541Z,8.50
2017-12-24T08:15:55.861Z,8.50
2017-12-24T08:18:24.156Z,8.50
2017-12-24T08:20:52.468Z,8.50
2017-12-24T08:23:20.759Z,8.50
2017-12-24T08:25:49.089Z,8.50
2017-12-24T08:28:17.376Z,8.50
2017-12-24T08:30:45.705Z,8.50
2017-12-24T08:33:14.004Z,8.60
2017-12-24T08:35:42.319Z,8.60
2017-12-24T08:38:10.617Z,8.60
2017-12-24T08:40:38.958Z,8.50
2017-12-24T08:43:06.489Z,8.50
2017-12-24T08:45:34.803Z,8.60
2017-12-24T08:48:03.100Z,8.60
2017-12-24T08:50:31.421Z,8.60
2017-12-24T08:52:59.720Z,8.60
2017-12-24T08:55:28.272Z,8.60
2017-12-24T08:57:56.556Z,8.60
2017-12-24T09:00:24.886Z,8.70
2017-12-24T09:02:53.180Z,8.70
2017-12-24T09:05:21.491Z,8.70
2017-12-24T09:07:49.794Z,8.70
2017-12-24T09:10:17.353Z,8.70
2017-12-24T09:12:45.656Z,8.70
2017-12-24T09:15:13.977Z,8.70
2017-12-24T09:17:42.267Z,8.70
2017-12-24T09:20:10.589Z,8.70
2017-12-24T09:22:38.884Z,8.70
2017-12-24T09:25:07.197Z,8.70
2017-12-24T09:27:35.489Z,8.70
2017-12-24T09:30:03.808Z,8.70
2017-12-24T09:32:31.332Z,8.70
2017-12-24T09:34:59.651Z,8.80
2017-12-24T09:37:27.947Z,8.80
2017-12-24T09:39:55.540Z,8.80
2017-12-24T09:42:23.836Z,8.80
2017-12-24T09:44:52.120Z,8.80
2017-12-24T09:47:20.448Z,8.90
2017-12-24T09:49:48.756Z,8.90
2017-12-24T09:52:17.076Z,8.90
2017-12-24T09:54:45.367Z,8.90
2017-12-24T09:57:13.676Z,8.90
2017-12-24T09:59:41.984Z,8.90
2017-12-24T10:02:10.296Z,9.00
2017-12-24T10:04:38.581Z,9.00
2017-12-24T10:07:06.892Z,9.00
2017-12-24T10:09:35.184Z,9.00
2017-12-24T10:12:03.541Z,9.00
2017-12-24T10:14:31.824Z,9.00
2017-12-24T10:17:00.140Z,9.00
2017-12-24T10:19:28.426Z,9.00
2017-12-24T10:21:56.736Z,9.00
2017-12-24T10:24:25.020Z,9.10
2017-12-24T10:26:53.354Z,9.20
2017-12-24T10:29:20.894Z,9.20
2017-12-24T10:31:49.221Z,9.20
2017-12-24T10:34:17.521Z,9.20
2017-12-24T10:36:45.836Z,9.20
2017-12-24T10:39:14.132Z,9.30
2017-12-24T10:41:42.448Z,9.30
2017-12-24T10:44:10.732Z,9.30
2017-12-24T10:46:39.045Z,9.40
2017-12-24T10:49:07.353Z,9.30
2017-12-24T10:51:35.669Z,9.30
2017-12-24T10:54:03.956Z,9.30
2017-12-24T10:56:32.268Z,9.40
2017-12-24T10:59:00.559Z,9.40
2017-12-24T11:01:28.876Z,9.40
2017-12-24T11:03:57.173Z,9.30
2017-12-24T11:06:25.490Z,9.30
2017-12-24T11:08:53.814Z,9.30
2017-12-24T11:11:22.116Z,9.30
2017-12-24T11:13:50.400Z,9.30
2017-12-24T11:16:18.720Z,9.30
2017-12-24T11:18:47.012Z,9.40
2017-12-24T11:21:15.344Z,9.40
2017-12-24T11:23:43.632Z,9.40
2017-12-24T11:26:11.928Z,9.40
2017-12-24T11:28:40.235Z,9.40
2017-12-24T11:31:08.516Z,9.40
2017-12-24T11:33:36.836Z,9.50
2017-12-24T11:36:05.124Z,9.50
2017-12-24T11:38:33.440Z,9.50
2017-12-24T11:41:01.723Z,9.60
2017-12-24T11:43:30.039Z,9.60
2017-12-24T11:45:58.332Z,9.60
2017-12-24T11:48:26.643Z,9.60
2017-12-24T11:50:54.934Z,9.70
2017-12-24T11:53:23.245Z,9.60
2017-12-24T11:55:50.764Z,9.60
2017-12-24T11:58:19.072Z,9.60
2017-12-24T12:00:47.363Z,9.60
2017-12-24T12:03:14.921Z,9.60
2017-12-24T12:05:43.213Z,9.50
2017-12-24T12:08:11.524Z,9.50
2017-12-24T12:10:39.834Z,9.50
2017-12-24T12:13:08.148Z,9.50
2017-12-24T12:15:36.448Z,9.50
2017-12-24T12:18:04.755Z,9.40
2017-12-24T12:20:33.044Z,9.40
2017-12-24T12:23:01.359Z,9.30
2017-12-24T12:25:29.656Z,9.30
2017-12-24T12:27:57.977Z,9.30
2017-12-24T12:30:26.268Z,9.20
2017-12-24T12:32:54.580Z,9.20
2017-12-24T12:35:22.871Z,9.30
2017-12-24T12:37:51.181Z,9.30
2017-12-24T12:40:19.477Z,9.30
2017-12-24T12:42:47.791Z,9.20
2017-12-24T12:45:16.075Z,9.30
2017-12-24T12:47:44.384Z,9.20
2017-12-24T12:50:12.679Z,9.20
2017-12-24T12:52:40.984Z,9.20
2017-12-24T12:55:09.284Z,9.20
2017-12-24T12:57:37.588Z,9.20
2017-12-24T13:00:05.877Z,9.30
2017-12-24T13:02:34.233Z,9.30
2017-12-24T13:05:02.521Z,9.40
2017-12-24T13:07:30.814Z,9.40
2017-12-24T13:09:58.368Z,9.40
2017-12-24T13:12:26.660Z,9.30
2017-12-24T13:14:54.970Z,9.30
2017-12-24T13:17:23.284Z,9.30
2017-12-24T13:19:50.817Z,9.30
2017-12-24T13:22:19.116Z,9.30
2017-12-24T13:24:47.424Z,9.20
2017-12-24T13:27:15.708Z,9.20
2017-12-24T13:29:44.018Z,9.20
2017-12-24T13:32:12.320Z,9.20
2017-12-24T13:34:40.641Z,9.10
2017-12-24T13:37:08.929Z,9.10
2017-12-24T13:39:37.243Z,9.20
2017-12-24T13:42:05.537Z,9.10
2017-12-24T13:44:33.865Z,9.10
2017-12-24T13:47:02.157Z,9.10
2017-12-24T13:49:30.474Z,9.20
2017-12-24T13:51:58.773Z,9.10
2017-12-24T13:54:27.084Z,9.10
2017-12-24T13:56:55.377Z,9.10
2017-12-24T13:59:23.693Z,9.10
2017-12-24T14:01:51.988Z,9.00
2017-12-24T14:04:20.301Z,9.00
2017-12-24T14:06:48.592Z,9.00
2017-12-24T14:09:16.920Z,9.00
2017-12-24T14:11:45.215Z,9.00
2017-12-24T14:14:13.537Z,9.00
2017-12-24T14:16:41.825Z,8.90
2017-12-24T14:19:10.136Z,8.90
2017-12-24T14:21:37.659Z,8.90
2017-12-24T14:24:05.969Z,8.90
2017-12-24T14:26:34.256Z,9.00
2017-12-24T14:29:02.577Z,9.00
2017-12-24T14:31:30.868Z,9.00
2017-12-24T14:33:59.189Z,9.00
2017-12-24T14:36:27.476Z,8.90
2017-12-24T14:38:55.817Z,8.90
2017-12-24T14:41:24.133Z,8.90
2017-12-24T14:43:52.422Z,8.90
2017-12-24T14:46:20.744Z,8.90
2017-12-24T14:48:49.960Z,8.80
2017-12-24T14:51:17.516Z,8.80
2017-12-24T14:53:45.811Z,8.90
2017-12-24T14:56:14.132Z,8.80
2017-12-24T14:58:42.461Z,8.80
2017-12-24T15:01:10.784Z,8.80
2017-12-24T15:03:39.078Z,8.70
2017-12-24T15:06:07.405Z,8.70
2017-12-24T15:08:36.412Z,8.70
2017-12-24T15:11:04.728Z,8.70
2017-12-24T15:13:33.023Z,8.60
2017-12-24T15:16:01.428Z,8.70
2017-12-24T15:18:29.729Z,8.60
2017-12-24T15:20:58.049Z,8.60
2017-12-24T15:23:26.356Z,8.60
2017-12-24T15:25:54.672Z,8.60
2017-12-24T15:28:22.979Z,8.60
2017-12-24T15:30:51.293Z,8.60
2017-12-24T15:33:18.819Z,8.50
2017-12-24T15:35:47.128Z,8.50
2017-12-24T15:38:15.424Z,8.50
2017-12-24T15:40:43.744Z,8.50
2017-12-24T15:43:12.037Z,8.50
2017-12-24T15:45:40.355Z,8.50
2017-12-24T15:48:08.645Z,8.50
2017-12-24T15:50:36.964Z,8.50
2017-12-24T15:53:05.256Z,8.50
2017-12-24T15:55:33.580Z,8.50
2017-12-24T15:58:01.875Z,8.50
2017-12-24T16:00:30.197Z,8.50
2017-12-24T16:02:58.492Z,8.40
2017-12-24T16:05:26.819Z,8.40
2017-12-24T16:07:55.125Z,8.40
2017-12-24T16:10:23.452Z,8.40
2017-12-24T16:12:51.741Z,8.40
2017-12-24T16:15:20.091Z,8.50
2017-12-24T16:17:48.397Z,8.50
2017-12-24T16:20:15.933Z,8.40
2017-12-24T16:22:44.252Z,8.50
2017-12-24T16:25:12.541Z,8.40
2017-12-24T16:27:40.866Z,8.40
2017-12-24T16:30:09.161Z,8.40
2017-12-24T16:32:37.477Z,8.40
2017-12-24T16:35:05.777Z,8.40
2017-12-24T16:37:34.089Z,8.40
2017-12-24T16:40:02.381Z,8.40
2017-12-24T16:42:30.692Z,8.40
2017-12-24T16:44:58.980Z,8.40
2017-12-24T16:47:27.293Z,8.40
2017-12-24T16:49:55.585Z,8.40
2017-12-24T16:52:23.900Z,8.40
2017-12-24T16:54:52.201Z,8.40
2017-12-24T16:57:20.533Z,8.40
2017-12-24T16:59:48.820Z,8.40
2017-12-24T17:02:17.137Z,8.40
2017-12-24T17:04:45.444Z,8.40
2017-12-24T17:07:13.762Z,8.40
2017-12-24T17:09:42.064Z,8.40
2017-12-24T17:12:10.377Z,8.40
2017-12-24T17:14:38.673Z,8.40
2017-12-24T17:17:06.984Z,8.40
2017-12-24T17:19:35.279Z,8.30
2017-12-24T17:22:03.596Z,8.30
2017-12-24T17:24:31.889Z,8.30
2017-12-24T17:27:00.211Z,8.30
2017-12-24T17:29:28.509Z,8.30
2017-12-24T17:31:56.816Z,8.30
2017-12-24T17:34:25.123Z,8.30
2017-12-24T17:36:53.440Z,8.30
2017-12-24T17:39:21.744Z,8.30
2017-12-24T17:41:50.058Z,8.30
2017-12-24T17:44:18.352Z,8.30
2017-12-24T17:46:46.668Z,8.30
2017-12-24T17:49:14.959Z,8.30
2017-12-24T17:51:43.279Z,8.30
2017-12-24T17:54:11.572Z,8.30
2017-12-24T17:56:39.878Z,8.30
2017-12-24T17:59:08.197Z,8.30
2017-12-24T18:01:36.497Z,8.30
2017-12-24T18:04:04.812Z,8.30
2017-12-24T18:06:33.117Z,8.20
2017-12-24T18:09:01.420Z,8.20
2017-12-24T18:11:29.717Z,8.20
2017-12-24T18:13:58.036Z,8.20
2017-12-24T18:16:26.323Z,8.20
2017-12-24T18:18:54.642Z,8.20
2017-12-24T18:21:22.935Z,8.20
2017-12-24T18:23:51.248Z,8.20
2017-12-24T18:26:19.548Z,8.20
2017-12-24T18:28:47.866Z,8.20
2017-12-24T18:31:16.169Z,8.20
2017-12-24T18:33:44.480Z,8.20
2017-12-24T18:36:12.783Z,8.20
2017-12-24T18:38:41.096Z,8.20
2017-12-24T18:41:09.391Z,8.20
2017-12-24T18:43:37.708Z,8.20
2017-12-24T18:46:06.017Z,8.10
2017-12-24T18:48:34.337Z,8.10
2017-12-24T18:51:02.633Z,8.10
2017-12-24T18:53:30.949Z,8.10
2017-12-24T18:55:59.246Z,8.10
2017-12-24T18:58:27.558Z,8.10
2017-12-24T19:00:55.848Z,8.10
2017-12-24T19:03:24.202Z,8.10
2017-12-24T19:05:52.469Z,8.10
2017-12-24T19:11:14.963Z,8.10
2017-12-24T19:13:43.267Z,8.10
2017-12-24T19:16:11.572Z,8.10
2017-12-24T19:21:04.388Z,8.10
2017-12-24T19:23:32.709Z,8.20
2017-12-24T19:26:01.001Z,8.10
2017-12-24T19:28:29.312Z,8.10
2017-12-24T19:30:57.617Z,8.10
2017-12-24T19:33:25.933Z,8.10
2017-12-24T19:35:54.233Z,8.10
2017-12-24T19:38:22.545Z,8.10
2017-12-24T19:40:50.837Z,8.10
2017-12-24T19:43:19.145Z,8.10
2017-12-24T19:45:46.682Z,8.10
2017-12-24T19:48:14.996Z,8.10
2017-12-24T19:50:43.292Z,8.10
2017-12-24T19:53:11.605Z,8.00
2017-12-24T19:55:39.917Z,8.00
2017-12-24T19:58:08.216Z,8.00
2017-12-24T20:00:36.528Z,8.00
2017-12-24T20:03:04.820Z,8.00
2017-12-24T20:05:33.132Z,8.00
2017-12-24T20:08:01.416Z,8.00
2017-12-24T20:10:29.736Z,8.00
2017-12-24T20:12:58.043Z,8.00
2017-12-24T20:15:26.351Z,8.00
2017-12-24T20:17:54.636Z,7.90
2017-12-24T20:20:22.957Z,7.90
2017-12-24T20:22:51.247Z,7.90
2017-12-24T20:25:18.796Z,7.90
2017-12-24T20:27:47.089Z,7.90
2017-12-24T20:30:15.408Z,7.90
2017-12-24T20:32:43.707Z,7.80
2017-12-24T20:35:12.024Z,7.80
2017-12-24T20:37:40.319Z,7.80
2017-12-24T20:40:08.649Z,7.80
2017-12-24T20:42:36.944Z,7.90
2017-12-24T20:45:05.267Z,7.80
2017-12-24T20:47:33.560Z,7.80
2017-12-24T20:50:01.867Z,7.80
2017-12-24T20:52:30.155Z,7.80
2017-12-24T20:54:58.468Z,7.80
2017-12-24T20:57:26.769Z,7.80
2017-12-24T20:59:55.089Z,7.90
2017-12-24T21:02:23.389Z,7.90
2017-12-24T21:04:51.699Z,7.90
2017-12-24T21:07:19.992Z,7.90
2017-12-24T21:09:48.311Z,7.80
2017-12-24T21:12:16.604Z,7.80
2017-12-24T21:14:44.916Z,7.80
2017-12-24T21:17:13.229Z,7.80
2017-12-24T21:19:41.544Z,7.80
2017-12-24T21:22:09.832Z,7.80
2017-12-24T21:24:38.160Z,7.80
2017-12-24T21:27:06.467Z,7.80
2017-12-24T21:29:36.225Z,7.80
2017-12-24T21:32:04.521Z,7.80
2017-12-24T21:34:32.820Z,7.80
2017-12-24T21:37:01.139Z,7.80
2017-12-24T21:39:29.420Z,7.80
2017-12-24T21:41:57.727Z,7.80
2017-12-24T21:44:26.016Z,7.80
2017-12-24T21:46:54.328Z,7.70
2017-12-24T21:49:22.636Z,7.70
2017-12-24T21:51:50.960Z,7.70
2017-12-24T21:54:19.278Z,7.70
2017-12-24T21:56:47.588Z,7.70
2017-12-24T21:59:15.876Z,7.80
2017-12-24T22:01:44.236Z,7.70
2017-12-24T22:04:12.604Z,7.80
2017-12-24T22:06:40.921Z,7.70
2017-12-24T22:09:09.212Z,7.70
2017-12-24T22:11:37.523Z,7.70
2017-12-24T22:14:05.807Z,7.70
2017-12-24T22:16:34.115Z,7.70
2017-12-24T22:19:02.411Z,7.70
2017-12-24T22:21:30.724Z,7.70
2017-12-24T22:23:59.014Z,7.70
2017-12-24T22:26:27.324Z,7.70
2017-12-24T22:28:55.610Z,7.70
2017-12-24T22:31:23.916Z,7.70
2017-12-24T22:33:52.208Z,7.70
2017-12-24T22:36:20.521Z,7.70
2017-12-24T22:38:48.907Z,7.70
2017-12-24T22:41:17.222Z,7.70
2017-12-24T22:43:45.525Z,7.70
2017-12-24T22:46:13.836Z,7.70
2017-12-24T22:48:42.136Z,7.70
2017-12-24T22:51:10.455Z,7.80
2017-12-24T22:53:38.751Z,7.80
2017-12-24T22:56:06.303Z,7.70
2017-12-24T22:58:34.588Z,7.80
2017-12-24T23:01:02.908Z,7.70
2017-12-24T23:03:31.206Z,7.70
2017-12-24T23:05:59.524Z,7.70
2017-12-24T23:08:27.819Z,7.70
2017-12-24T23:10:56.127Z,7.70
2017-12-24T23:13:24.415Z,7.70
2017-12-24T23:15:52.706Z,7.70
2017-12-24T23:18:21.027Z,7.70
2017-12-24T23:20:49.311Z,7.70
2017-12-24T23:23:17.620Z,7.80
2017-12-24T23:25:45.908Z,7.70
2017-12-24T23:28:14.220Z,7.70
2017-12-24T23:30:42.509Z,7.70
2017-12-24T23:33:10.819Z,7.80
2017-12-24T23:35:39.104Z,7.80
2017-12-24T23:38:07.420Z,7.80
2017-12-24T23:40:35.704Z,7.80
2017-12-24T23:43:04.026Z,7.80
2017-12-24T23:45:32.324Z,7.80
2017-12-24T23:48:00.628Z,7.80
2017-12-24T23:50:28.916Z,7.80
2017-12-24T23:52:57.228Z,7.80
2017-12-24T23:55:25.515Z,7.80
2017-12-24T23:57:53.824Z,7.80
